createdAt,value
2022-08-11T00:00:36.781Z,49.04
2022-08-11T00:03:07.837Z,49.06
2022-08-11T00:05:45.133Z,49.20
2022-08-11T00:08:21.487Z,49.65
2022-08-11T00:10:57.603Z,49.66
2022-08-11T00:13:35.691Z,49.93
2022-08-11T00:16:05.019Z,49.93
2022-08-11T00:18:41.153Z,50.31
2022-08-11T00:21:08.679Z,50.14
2022-08-11T00:23:42.439Z,50.00
2022-08-11T00:26:10.016Z,50.01
2022-08-11T00:28:37.301Z,50.21
2022-08-11T00:31:06.843Z,50.15
2022-08-11T00:33:45.351Z,50.28
2022-08-11T00:36:15.616Z,50.00
2022-08-11T00:38:45.180Z,50.82
2022-08-11T00:41:33.235Z,50.74
2022-08-11T00:44:24.865Z,50.64
2022-08-11T00:47:03.496Z,50.76
2022-08-11T00:49:45.532Z,51.06
2022-08-11T00:52:40.154Z,51.52
2022-08-11T00:55:47.201Z,51.74
2022-08-11T00:58:44.593Z,51.31
2022-08-11T01:01:18.392Z,51.55
2022-08-11T01:04:09.368Z,51.26
2022-08-11T01:07:14.143Z,51.49
2022-08-11T01:09:41.388Z,51.39
2022-08-11T01:12:40.477Z,51.91
2022-08-11T01:15:40.196Z,52.30
2022-08-11T01:18:22.126Z,52.53
2022-08-11T01:21:09.257Z,52.55
2022-08-11T01:24:10.571Z,52.45
2022-08-11T01:26:56.010Z,52.24
2022-08-11T01:30:00.608Z,52.12
2022-08-11T01:32:57.092Z,52.31
2022-08-11T01:35:51.319Z,52.51
2022-08-11T01:38:31.870Z,52.72
2022-08-11T01:41:23.075Z,52.85
2022-08-11T01:44:20.768Z,52.97
2022-08-11T01:46:54.429Z,53.76
2022-08-11T01:50:06.756Z,53.65
2022-08-11T01:52:20.198Z,53.82
2022-08-11T01:55:24.013Z,53.37
2022-08-11T01:58:16.243Z,53.95
2022-08-11T02:00:53.090Z,54.37
2022-08-11T02:03:37.497Z,54.07
2022-08-11T02:06:35.444Z,53.97
2022-08-11T02:09:09.820Z,54.18
2022-08-11T02:11:38.243Z,53.95
2022-08-11T02:14:53.579Z,54.24
2022-08-11T02:18:06.006Z,54.13
2022-08-11T02:21:05.735Z,54.32
2022-08-11T02:24:06.156Z,54.74
2022-08-11T02:26:44.641Z,54.70
2022-08-11T02:29:24.715Z,54.85
2022-08-11T02:32:28.636Z,54.72
2022-08-11T02:35:19.277Z,55.23
2022-08-11T02:37:55.116Z,55.30
2022-08-11T02:40:34.778Z,55.15
2022-08-11T02:43:10.493Z,56.01
2022-08-11T02:45:55.919Z,56.44
2022-08-11T02:49:12.574Z,56.55
2022-08-11T02:52:07.326Z,56.89
2022-08-11T02:54:48.023Z,56.27
2022-08-11T02:57:41.092Z,56.39
2022-08-11T03:00:12.613Z,56.22
2022-08-11T03:03:17.270Z,56.36
2022-08-11T03:06:12.797Z,56.71
2022-08-11T03:08:51.801Z,56.44
2022-08-11T03:12:31.873Z,56.37
2022-08-11T03:15:30.995Z,56.52
2022-08-11T03:18:19.914Z,56.46
2022-08-11T03:21:07.895Z,56.44
2022-08-11T03:23:56.162Z,56.37
2022-08-11T03:26:31.824Z,56.65
2022-08-11T03:29:04.883Z,56.91
2022-08-11T03:31:40.158Z,56.69
2022-08-11T03:34:11.231Z,57.13
2022-08-11T03:37:38.940Z,56.82
2022-08-11T03:40:43.737Z,56.86
2022-08-11T03:43:16.854Z,56.72
2022-08-11T03:46:14.189Z,56.70
2022-08-11T03:49:05.904Z,56.99
2022-08-11T03:51:52.148Z,56.93
2022-08-11T03:54:36.056Z,56.55
2022-08-11T03:57:40.669Z,56.57
2022-08-11T04:00:39.914Z,56.57
2022-08-11T04:03:31.349Z,56.67
2022-08-11T04:06:20.284Z,56.90
2022-08-11T04:09:17.955Z,57.28
2022-08-11T04:11:54.068Z,57.15
2022-08-11T04:15:20.476Z,56.84
2022-08-11T04:18:39.478Z,56.97
2022-08-11T04:21:06.483Z,56.36
2022-08-11T04:24:36.299Z,56.41
2022-08-11T04:27:32.786Z,56.08
2022-08-11T04:30:39.338Z,56.05
2022-08-11T04:33:35.067Z,55.66
2022-08-11T04:36:09.593Z,55.48
2022-08-11T04:39:03.839Z,55.59
2022-08-11T04:42:20.697Z,55.90
2022-08-11T04:45:02.666Z,55.58
2022-08-11T04:48:07.381Z,55.58
2022-08-11T04:51:30.982Z,55.68
2022-08-11T04:54:28.495Z,55.27
2022-08-11T04:57:23.420Z,55.61
2022-08-11T05:00:23.336Z,55.14
2022-08-11T05:03:02.975Z,55.03
2022-08-11T05:05:56.462Z,54.89
2022-08-11T05:08:48.902Z,54.92
2022-08-11T05:11:28.121Z,54.61
2022-08-11T05:14:32.042Z,54.63
2022-08-11T05:17:33.737Z,54.42
2022-08-11T05:20:19.332Z,54.35
2022-08-11T05:23:09.915Z,54.04
2022-08-11T05:26:43.160Z,53.99
2022-08-11T05:29:20.060Z,53.83
2022-08-11T05:32:15.340Z,53.13
2022-08-11T05:34:53.950Z,53.02
2022-08-11T05:37:27.575Z,53.03
2022-08-11T05:40:26.435Z,52.75
2022-08-11T05:43:23.961Z,52.38
2022-08-11T05:46:19.932Z,52.54
2022-08-11T05:49:08.079Z,52.33
2022-08-11T05:52:05.043Z,52.13
2022-08-11T05:54:59.773Z,51.73
2022-08-11T05:57:48.571Z,51.37
2022-08-11T06:00:18.793Z,51.09
2022-08-11T06:03:00.759Z,50.89
2022-08-11T06:05:43.261Z,50.49
2022-08-11T06:08:12.715Z,50.08
2022-08-11T06:10:42.329Z,50.33
2022-08-11T06:13:10.338Z,50.58
2022-08-11T06:15:45.316Z,50.12
2022-08-11T06:18:13.072Z,49.91
2022-08-11T06:20:55.042Z,49.71
2022-08-11T06:23:23.819Z,49.34
2022-08-11T06:25:52.655Z,49.40
2022-08-11T06:28:21.944Z,49.22
2022-08-11T06:30:49.203Z,49.23
2022-08-11T06:33:19.720Z,48.98
2022-08-11T06:36:03.482Z,48.63
2022-08-11T06:38:59.635Z,48.79
2022-08-11T06:41:45.049Z,48.59
2022-08-11T06:44:13.114Z,48.80
2022-08-11T06:46:46.689Z,48.12
2022-08-11T06:49:33.845Z,48.20
2022-08-11T06:52:04.587Z,48.18
2022-08-11T06:54:44.386Z,47.81
2022-08-11T06:57:33.188Z,47.57
2022-08-11T07:00:19.619Z,47.75
2022-08-11T07:03:00.758Z,47.68
2022-08-11T07:06:01.034Z,47.59
2022-08-11T07:09:23.959Z,47.46
2022-08-11T07:12:38.459Z,47.13
2022-08-11T07:15:25.302Z,47.08
2022-08-11T07:18:44.096Z,47.11
2022-08-11T07:22:00.646Z,47.03
2022-08-11T07:24:59.853Z,46.78
2022-08-11T07:27:59.190Z,46.03
2022-08-11T07:30:26.449Z,45.44
2022-08-11T07:32:56.897Z,45.56
2022-08-11T07:35:48.441Z,45.09
2022-08-11T07:38:25.386Z,44.65
2022-08-11T07:40:52.779Z,44.64
2022-08-11T07:43:20.110Z,44.67
2022-08-11T07:46:06.291Z,44.53
2022-08-11T07:48:52.221Z,43.52
2022-08-11T07:51:39.656Z,43.75
2022-08-11T07:54:16.289Z,43.39
2022-08-11T07:56:54.911Z,43.40
2022-08-11T08:00:03.549Z,43.28
2022-08-11T08:02:47.660Z,43.06
2022-08-11T08:05:34.342Z,42.62
2022-08-11T08:08:20.020Z,41.90
2022-08-11T08:11:05.873Z,41.47
2022-08-11T08:13:51.970Z,41.30
2022-08-11T08:16:38.684Z,40.94
2022-08-11T08:19:05.849Z,40.10
2022-08-11T08:21:33.002Z,39.71
2022-08-11T08:24:00.985Z,39.53
2022-08-11T08:26:48.352Z,39.59
2022-08-11T08:29:38.892Z,39.27
2022-08-11T08:32:07.332Z,39.21
2022-08-11T08:34:35.876Z,38.69
2022-08-11T08:37:03.122Z,38.48
2022-08-11T08:39:45.740Z,38.37
2022-08-11T08:42:17.612Z,38.27
2022-08-11T08:44:52.478Z,37.78
2022-08-11T08:47:41.873Z,37.74
2022-08-11T08:50:16.933Z,37.06
2022-08-11T08:52:50.939Z,36.47
2022-08-11T08:55:19.012Z,36.15
2022-08-11T08:57:49.368Z,35.99
2022-08-11T09:00:22.308Z,35.16
2022-08-11T09:02:51.710Z,35.55
2022-08-11T09:05:19.377Z,35.25
2022-08-11T09:07:47.656Z,34.92
2022-08-11T09:10:17.259Z,34.93
2022-08-11T09:12:45.032Z,35.02
2022-08-11T09:15:12.807Z,35.07
2022-08-11T09:17:47.859Z,35.25
2022-08-11T09:20:25.990Z,35.27
2022-08-11T09:26:22.378Z,33.74
2022-08-11T09:28:57.906Z,33.30
2022-08-11T09:31:26.696Z,33.09
2022-08-11T09:33:55.358Z,33.31
2022-08-11T09:36:41.777Z,32.94
2022-08-11T09:39:31.106Z,32.81
2022-08-11T09:42:03.367Z,32.45
2022-08-11T09:44:48.689Z,31.94
2022-08-11T09:47:25.885Z,31.57
2022-08-11T09:49:59.977Z,31.80
2022-08-11T09:52:30.209Z,31.11
2022-08-11T09:54:57.639Z,31.13
2022-08-11T09:57:44.352Z,30.70
2022-08-11T10:00:14.202Z,30.66
2022-08-11T10:02:46.500Z,30.89
2022-08-11T10:05:35.102Z,30.23
2022-08-11T10:08:03.573Z,30.07
2022-08-11T10:10:35.413Z,29.93
2022-08-11T10:13:05.735Z,29.73
2022-08-11T10:16:03.638Z,29.95
2022-08-11T10:18:53.097Z,29.22
2022-08-11T10:21:28.396Z,28.66
2022-08-11T10:24:17.483Z,28.60
2022-08-11T10:26:51.445Z,29.16
2022-08-11T10:29:59.814Z,29.01
2022-08-11T10:32:58.604Z,28.61
2022-08-11T10:35:31.951Z,28.53
2022-08-11T10:38:06.202Z,28.36
2022-08-11T10:40:41.085Z,27.45
2022-08-11T10:44:01.761Z,27.62
2022-08-11T10:46:29.840Z,26.60
2022-08-11T10:48:58.119Z,27.37
2022-08-11T10:51:50.997Z,26.67
2022-08-11T10:54:39.977Z,26.16
2022-08-11T10:57:27.788Z,26.14
2022-08-11T10:59:56.847Z,26.41
2022-08-11T11:02:24.271Z,26.47
2022-08-11T11:05:10.279Z,25.84
2022-08-11T11:07:50.516Z,26.34
2022-08-11T11:10:17.786Z,25.78
2022-08-11T11:13:05.735Z,25.86
2022-08-11T11:15:54.640Z,24.98
2022-08-11T11:18:24.745Z,23.89
2022-08-11T11:20:57.318Z,24.15
2022-08-11T11:23:47.467Z,24.85
2022-08-11T11:26:27.189Z,24.23
2022-08-11T11:29:08.387Z,23.68
2022-08-11T11:32:09.805Z,23.39
2022-08-11T11:35:14.755Z,23.10
2022-08-11T11:38:01.907Z,23.26
2022-08-11T11:40:32.468Z,22.95
2022-08-11T11:43:00.119Z,22.24
2022-08-11T11:45:27.683Z,22.32
2022-08-11T11:47:57.123Z,22.76
2022-08-11T11:50:32.679Z,22.61
2022-08-11T11:53:02.242Z,22.40
2022-08-11T11:55:30.348Z,21.85
2022-08-11T11:58:18.895Z,22.09
2022-08-11T12:01:05.817Z,22.08
2022-08-11T12:03:34.467Z,22.27
2022-08-11T12:06:02.782Z,22.03
2022-08-11T12:08:32.709Z,22.08
2022-08-11T12:11:21.746Z,21.98
2022-08-11T12:13:50.986Z,21.26
2022-08-11T12:16:35.300Z,21.23
2022-08-11T12:19:12.505Z,20.87
2022-08-11T12:22:03.561Z,20.23
2022-08-11T12:24:50.363Z,20.11
2022-08-11T12:27:25.283Z,19.85
2022-08-11T12:30:05.825Z,19.44
2022-08-11T12:32:35.616Z,19.79
2022-08-11T12:35:03.630Z,19.99
2022-08-11T12:37:35.393Z,20.67
2022-08-11T12:40:43.256Z,20.53
2022-08-11T12:43:38.959Z,20.63
2022-08-11T12:46:12.148Z,20.06
2022-08-11T12:49:04.267Z,18.88
2022-08-11T12:52:13.865Z,19.79
2022-08-11T12:54:58.680Z,19.73
2022-08-11T12:58:05.395Z,19.52
2022-08-11T13:00:51.621Z,19.93
2022-08-11T13:03:38.796Z,20.33
2022-08-11T13:06:06.947Z,20.00
2022-08-11T13:08:35.824Z,19.93
2022-08-11T13:11:22.007Z,19.82
2022-08-11T13:13:54.948Z,19.34
2022-08-11T13:16:23.746Z,19.02
2022-08-11T13:18:53.418Z,18.15
2022-08-11T13:21:21.777Z,18.33
2022-08-11T13:24:01.086Z,18.50
2022-08-11T13:26:47.412Z,17.59
2022-08-11T13:29:22.658Z,18.17
2022-08-11T13:31:51.824Z,18.30
2022-08-11T13:34:20.513Z,17.51
2022-08-11T13:36:53.377Z,16.94
2022-08-11T13:39:26.040Z,17.14
2022-08-11T13:41:57.522Z,16.80
2022-08-11T13:44:29.214Z,15.72
2022-08-11T13:46:58.229Z,16.54
2022-08-11T13:49:26.814Z,15.11
2022-08-11T13:51:55.443Z,15.33
2022-08-11T13:54:25.974Z,15.11
2022-08-11T13:56:56.267Z,14.92
2022-08-11T13:59:30.334Z,14.28
2022-08-11T14:02:28.543Z,12.91
2022-08-11T14:05:01.257Z,12.33
2022-08-11T14:07:35.828Z,11.30
2022-08-11T14:10:06.419Z,9.81
2022-08-11T14:12:53.559Z,9.65
2022-08-11T14:15:25.079Z,8.21
2022-08-11T14:18:14.299Z,7.65
2022-08-11T14:21:01.125Z,6.97
2022-08-11T14:23:42.576Z,5.93
2022-08-11T14:26:29.298Z,6.13
2022-08-11T14:29:14.251Z,5.02
2022-08-11T14:31:47.955Z,4.30
2022-08-11T14:34:15.731Z,3.61
2022-08-11T14:36:44.529Z,3.77
2022-08-11T14:39:18.039Z,4.13
2022-08-11T14:42:13.933Z,3.54
2022-08-11T14:45:05.872Z,3.85
2022-08-11T14:47:34.998Z,3.18
2022-08-11T14:50:11.304Z,3.08
2022-08-11T14:52:59.296Z,2.97
2022-08-11T14:55:46.931Z,3.11
2022-08-11T14:58:18.734Z,3.06
2022-08-11T15:00:46.370Z,2.96
2022-08-11T15:03:14.627Z,1.36
2022-08-11T15:05:57.262Z,1.97
2022-08-11T15:08:51.283Z,2.79
2022-08-11T15:11:38.109Z,2.37
2022-08-11T15:14:07.126Z,2.48
2022-08-11T15:16:58.999Z,2.45
2022-08-11T15:19:28.952Z,1.95
2022-08-11T15:22:27.394Z,2.07
2022-08-11T15:24:55.296Z,2.28
2022-08-11T15:27:42.711Z,2.52
2022-08-11T15:30:32.798Z,2.00
2022-08-11T15:33:23.590Z,2.70
2022-08-11T15:36:10.114Z,2.35
2022-08-11T15:38:43.075Z,2.78
2022-08-11T15:41:31.431Z,2.61
2022-08-11T15:44:17.068Z,2.18
2022-08-11T15:46:47.881Z,2.09
2022-08-11T15:49:21.724Z,1.96
2022-08-11T15:52:02.973Z,2.05
2022-08-11T15:54:32.297Z,1.88
2022-08-11T15:57:05.543Z,3.00
2022-08-11T15:59:53.734Z,2.19
2022-08-11T16:02:36.374Z,1.95
2022-08-11T16:05:10.172Z,2.40
2022-08-11T16:07:40.609Z,1.28
2022-08-11T16:10:18.699Z,2.06
2022-08-11T16:13:21.474Z,2.74
2022-08-11T16:16:14.939Z,2.15
2022-08-11T16:18:52.081Z,2.97
2022-08-11T16:21:26.005Z,3.03
2022-08-11T16:24:06.873Z,3.53
2022-08-11T16:27:10.438Z,4.29
2022-08-11T16:29:25.386Z,6.31
2022-08-11T16:32:12.180Z,7.35
2022-08-11T16:34:58.440Z,8.87
2022-08-11T16:37:44.633Z,9.22
2022-08-11T16:40:12.392Z,10.47
2022-08-11T16:43:09.255Z,11.07
2022-08-11T16:45:58.911Z,11.74
2022-08-11T16:48:38.639Z,12.18
2022-08-11T16:51:07.508Z,12.39
2022-08-11T16:53:45.985Z,12.79
2022-08-11T16:56:27.877Z,13.06
2022-08-11T16:59:18.228Z,14.09
2022-08-11T17:01:53.858Z,14.30
2022-08-11T17:04:54.293Z,14.34
2022-08-11T17:07:43.159Z,14.58
2022-08-11T17:10:53.396Z,14.78
2022-08-11T17:13:26.325Z,15.22
2022-08-11T17:16:10.247Z,15.36
2022-08-11T17:18:51.515Z,15.75
2022-08-11T17:21:20.653Z,15.71
2022-08-11T17:23:55.077Z,16.55
2022-08-11T17:26:58.841Z,16.50
2022-08-11T17:29:30.906Z,16.57
2022-08-11T17:32:18.678Z,17.23
2022-08-11T17:35:05.018Z,17.17
2022-08-11T17:37:34.040Z,17.00
2022-08-11T17:40:07.946Z,17.15
2022-08-11T17:42:54.749Z,18.01
2022-08-11T17:46:01.449Z,18.03
2022-08-11T17:48:47.586Z,18.80
2022-08-11T17:51:38.858Z,18.85
2022-08-11T17:54:25.763Z,19.14
2022-08-11T17:57:21.374Z,19.40
2022-08-11T17:59:55.072Z,19.55
2022-08-11T18:02:53.890Z,19.73
2022-08-11T18:05:27.550Z,20.23
2022-08-11T18:08:15.738Z,20.52
2022-08-11T18:11:01.954Z,20.77
2022-08-11T18:13:53.377Z,21.11
2022-08-11T18:16:42.071Z,21.51
2022-08-11T18:19:28.287Z,21.21
2022-08-11T18:22:24.344Z,21.61
2022-08-11T18:25:25.265Z,21.87
2022-08-11T18:28:15.194Z,22.38
2022-08-11T18:31:06.623Z,22.17
2022-08-11T18:34:07.501Z,22.41
2022-08-11T18:37:05.888Z,22.92
2022-08-11T18:39:56.031Z,22.96
2022-08-11T18:42:42.918Z,23.32
2022-08-11T18:45:30.938Z,23.60
2022-08-11T18:48:34.148Z,24.28
2022-08-11T18:51:31.519Z,23.85
2022-08-11T18:54:26.748Z,24.29
2022-08-11T18:57:16.836Z,24.43
2022-08-11T19:00:03.948Z,24.81
2022-08-11T19:02:51.418Z,25.50
2022-08-11T19:06:32.384Z,26.08
2022-08-11T19:08:49.158Z,25.70
2022-08-11T19:11:36.506Z,25.83
2022-08-11T19:14:31.113Z,26.10
2022-08-11T19:17:44.142Z,26.52
2022-08-11T19:20:29.731Z,27.33
2022-08-11T19:23:15.815Z,27.35
2022-08-11T19:26:05.524Z,27.88
2022-08-11T19:28:53.348Z,28.33
2022-08-11T19:31:44.497Z,29.16
2022-08-11T19:34:36.642Z,29.72
2022-08-11T19:37:25.465Z,28.98
2022-08-11T19:40:13.591Z,29.33
2022-08-11T19:43:00.802Z,28.80
2022-08-11T19:45:50.514Z,28.76
2022-08-11T19:48:40.567Z,29.44
2022-08-11T19:51:27.746Z,29.65
2022-08-11T19:54:13.995Z,30.12
2022-08-11T19:57:01.440Z,30.98
2022-08-11T19:59:47.372Z,31.13
2022-08-11T20:02:32.967Z,30.85
2022-08-11T20:05:18.623Z,30.45
2022-08-11T20:08:05.594Z,30.35
2022-08-11T20:10:53.410Z,31.49
2022-08-11T20:13:41.624Z,32.95
2022-08-11T20:16:30.553Z,32.19
2022-08-11T20:19:25.946Z,31.54
2022-08-11T20:22:27.055Z,31.40
2022-08-11T20:25:13.914Z,31.33
2022-08-11T20:28:01.082Z,31.59
2022-08-11T20:30:48.532Z,31.62
2022-08-11T20:33:37.841Z,31.58
2022-08-11T20:36:27.200Z,31.97
2022-08-11T20:39:14.521Z,31.64
2022-08-11T20:42:00.862Z,32.09
2022-08-11T20:44:47.972Z,33.15
2022-08-11T20:47:59.119Z,32.56
2022-08-11T20:50:42.455Z,32.45
2022-08-11T20:53:35.911Z,32.58
2022-08-11T20:56:28.822Z,33.00
2022-08-11T20:59:21.906Z,33.06
2022-08-11T21:02:09.889Z,34.21
2022-08-11T21:05:00.694Z,34.70
2022-08-11T21:07:56.741Z,35.44
2022-08-11T21:10:47.749Z,35.80
2022-08-11T21:13:39.213Z,35.93
2022-08-11T21:16:27.508Z,36.97
2022-08-11T21:20:01.377Z,37.49
2022-08-11T21:22:34.612Z,37.98
2022-08-11T21:25:20.742Z,37.92
2022-08-11T21:28:09.022Z,37.82
2022-08-11T21:30:57.496Z,38.00
2022-08-11T21:33:46.367Z,38.89
2022-08-11T21:36:33.077Z,39.07
2022-08-11T21:39:20.818Z,38.15
2022-08-11T21:42:13.717Z,38.87
2022-08-11T21:45:01.262Z,39.46
2022-08-11T21:47:48.367Z,39.63
2022-08-11T21:50:34.609Z,40.20
2022-08-11T21:53:20.864Z,40.02
2022-08-11T21:56:06.596Z,41.21
2022-08-11T21:58:52.536Z,41.07
2022-08-11T22:01:39.587Z,41.88
2022-08-11T22:04:25.723Z,42.00
2022-08-11T22:07:12.013Z,42.56
2022-08-11T22:09:58.395Z,42.18
2022-08-11T22:12:45.285Z,42.29
2022-08-11T22:15:31.875Z,43.20
2022-08-11T22:18:20.111Z,43.66
2022-08-11T22:21:06.826Z,43.79
2022-08-11T22:23:56.894Z,44.08
2022-08-11T22:26:47.381Z,43.76
2022-08-11T22:29:39.527Z,43.88
2022-08-11T22:32:37.897Z,44.29
2022-08-11T22:35:24.647Z,44.53
2022-08-11T22:38:16.466Z,44.63
2022-08-11T22:41:02.142Z,44.60
2022-08-11T22:43:47.813Z,45.53
2022-08-11T22:46:34.455Z,45.51
2022-08-11T22:49:20.794Z,45.58
2022-08-11T22:52:07.126Z,46.10
2022-08-11T22:54:53.365Z,46.35
2022-08-11T22:57:40.182Z,46.08
2022-08-11T23:00:30.670Z,46.56
2022-08-11T23:03:37.900Z,46.15
2022-08-11T23:06:23.550Z,46.79
2022-08-11T23:09:09.421Z,46.70
2022-08-11T23:12:06.270Z,46.32
2022-08-11T23:14:54.296Z,46.35
2022-08-11T23:17:41.423Z,46.92
2022-08-11T23:20:38.849Z,47.18
2022-08-11T23:23:32.310Z,47.02
2022-08-11T23:26:18.186Z,47.29
2022-08-11T23:32:25.319Z,47.55
2022-08-11T23:35:39.997Z,47.05
2022-08-11T23:38:19.214Z,47.82
2022-08-11T23:41:05.134Z,47.53
2022-08-11T23:43:50.905Z,48.24
2022-08-11T23:46:39.830Z,48.42
2022-08-11T23:49:25.761Z,47.79
2022-08-11T23:52:11.393Z,48.10
2022-08-11T23:54:57.688Z,47.88
2022-08-11T23:57:48.939Z,48.40
